Latest Coastal Weather Observations for Troughton Island

IDW60701

Issued at 8:02 am WST Friday 6 March 2015 (issued every 10 minutes, with the page automatically refreshed every 10 minutes)

About coastal observations | Map of coastal stations | Coastal observations for WA | Marine services | Other Formats
Station Details ID: 001007 Name: TROUGHTON ISLAND Lat: -13.75 Lon: 126.15 Height: 6.0 m
Data from the previous 72 hours. | See also: Recent months at Troughton Island
Date/Time
WST
Temp

°C
Wind Pressure Rain
since 9am
mm
Weather Cloud Vis
km
Sea
Height
m
Swell
Dir
 
Speed
knots
Gust
knots
hPa Trend Height
m
Period
s
Dir
06/08:00am 30.2 SW 13 16 1009.2 - 0.0 - - - - - - -
06/07:30am 30.0 SSW 14 17 1009.2 - 0.0 - - - - - - -
06/07:00am 29.5 SSW 14 17 1008.9 - 0.0 - - - - - - -
06/06:30am 29.2 SW 14 17 1008.6 - 0.0 - - - - - - -
06/06:00am 28.9 SW 13 17 1008.4 - 0.0 - - - - - - -
06/05:30am 28.7 WSW 14 16 1008.2 - 0.0 - - - - - - -
06/05:00am 28.7 SW 14 17 1007.9 - 0.0 - - - - - - -
06/04:30am 28.8 SW 15 17 1007.9 - 0.0 - - - - - - -
06/04:00am 28.8 SW 14 16 1008.1 - 0.0 - - - - - - -
06/03:30am 28.8 WSW 13 15 1007.9 - 0.0 - - - - - - -
06/03:00am 28.8 WSW 12 15 1007.6 - 0.0 - - - - - - -
06/02:30am 28.9 W 12 14 1007.9 - 0.0 - - - - - - -
06/02:00am 28.9 W 11 13 1008.3 - 0.0 - - - - - - -
06/01:30am 28.9 W 11 13 1008.5 - 0.0 - - - - - - -
06/01:00am 28.9 W 10 12 1008.8 - 0.0 - - - - - - -
06/12:30am 29.0 W 10 11 1009.1 - 0.0 - - - - - - -
06/12:00am 29.0 W 9 11 1009.2 - 0.0 - - - - - - -
 
Date/Time
WST
Temp

°C
Wind Pressure Rain
since 9am
mm
Weather Cloud Vis
km
Sea
Height
m
Swell
Dir
 
Speed
knots
Gust
knots
hPa Trend Height
m
Period
s
Dir
05/11:30pm 29.0 W 9 10 1009.5 - 0.0 - - - - - - -
05/11:00pm 29.1 W 9 10 1010.0 - 0.0 - - - - - - -
05/10:30pm 29.1 W 9 11 1010.2 - 0.0 - - - - - - -
05/10:00pm 29.0 WNW 9 10 1010.1 - 0.0 - - - - - - -
05/09:30pm 29.1 WNW 9 11 1010.0 - 0.0 - - - - - - -
05/09:00pm 29.1 W 8 10 1009.9 - 0.0 - - - - - - -
05/08:00pm 29.2 WNW 10 12 1009.1 - 0.0 - - - - - - -
05/07:30pm 29.2 WNW 9 11 1008.8 - 0.0 - - - - - - -
05/07:00pm 29.1 WNW 9 10 1008.6 - 0.0 - - - - - - -
05/06:30pm 29.2 WNW 8 10 1008.2 - 0.0 - - - - - - -
05/06:00pm 29.4 WNW 7 8 1007.8 - 0.0 - - - - - - -
05/05:30pm 30.0 NW 6 7 1007.7 - 0.0 - - - - - - -
05/05:00pm 30.6 W 5 7 1007.6 - 0.0 - - - - - - -
05/04:30pm 31.1 W 5 6 1007.1 - 0.0 - - - - - - -
05/04:00pm 30.9 NW 6 8 1006.7 - 0.0 - - - - - - -
05/03:30pm 31.6 NW 8 9 1006.7 - 0.0 - - - - - - -
05/03:00pm 30.8 NNW 7 8 1006.9 - 0.0 - - - - - - -
05/02:30pm 31.0 NNW 7 8 1007.3 - 0.0 - - - - - - -
05/02:00pm 31.2 W 4 5 1007.7 - 0.0 - - - - - - -
05/01:30pm 31.3 NE 4 6 1008.2 - 0.0 - - - - - - -
05/01:00pm 31.2 E 5 6 1008.6 - 0.0 - - - - - - -
05/12:30pm 31.5 ESE 5 7 1008.9 - 0.0 - - - - - - -
05/12:00pm 31.2 ESE 6 8 1009.0 - 0.0 - - - - - - -
05/11:30am 30.5 ESE 5 7 1009.3 - 0.0 - - - - - - -
05/11:00am 30.7 ESE 6 8 1009.5 - 0.0 - - - - - - -
05/10:30am 30.9 ESE 5 7 1009.7 - 0.0 - - - - - - -
05/10:00am 30.3 SE 5 7 1009.7 - 0.0 - - - - - - -
05/09:30am 30.5 SE 7 8 1009.7 - 0.0 - - - - - - -
05/09:00am 30.3 SSE 8 9 1010.1 - 0.0 - - - - - - -
05/08:30am 29.6 S 7 9 1010.2 - 0.0 - - - - - - -
05/08:00am 29.3 S 6 8 1010.2 - 0.0 - - - - - - -
05/07:30am 29.0 SSW 4 5 1009.7 - 0.0 - - - - - - -
05/07:00am 28.8 SSE 7 8 1009.4 - 0.0 - - - - - - -
05/06:30am 28.3 S 2 5 1009.1 - 0.0 - - - - - - -
05/06:00am 27.7 S 5 6 1008.4 - 0.0 - - - - - - -
05/05:30am 27.6 S 5 6 1008.3 - 0.0 - - - - - - -
05/05:00am 27.7 S 6 7 1008.2 - 0.0 - - - - - - -
05/04:30am 27.6 S 5 6 1008.1 - 0.0 - - - - - - -
05/04:00am 27.5 S 4 5 1008.1 - 0.0 - - - - - - -
05/03:30am 27.7 S 4 5 1008.2 - 0.0 - - - - - - -
05/03:00am 27.7 S 4 5 1008.1 - 0.0 - - - - - - -
05/02:30am 27.7 SSE 3 4 1008.3 - 0.0 - - - - - - -
05/02:00am 27.8 SSW 3 4 1008.2 - 0.0 - - - - - - -
05/01:30am 27.7 WSW 3 4 1008.0 - 0.0 - - - - - - -
05/01:00am 28.0 S 5 5 1008.1 - 0.0 - - - - - - -
05/12:30am 28.1 S 4 6 1008.5 - 0.0 - - - - - - -
05/12:00am 28.1 S 6 7 1008.6 - 0.0 - - - - - - -
 
Date/Time
WST
Temp

°C
Wind Pressure Rain
since 9am
mm
Weather Cloud Vis
km
Sea
Height
m
Swell
Dir
 
Speed
knots
Gust
knots
hPa Trend Height
m
Period
s
Dir
04/11:30pm 28.2 S 6 7 1009.0 - 0.0 - - - - - - -
04/11:00pm 28.1 S 5 7 1009.5 - 0.0 - - - - - - -
04/10:30pm 28.2 SSW 6 7 1009.6 - 0.0 - - - - - - -
04/10:00pm 28.2 S 6 7 1010.0 - 0.0 - - - - - - -
04/09:30pm 28.3 S 6 7 1009.8 - 0.0 - - - - - - -
04/09:00pm 28.3 SSE 4 5 1009.7 - 0.0 - - - - - - -
04/08:30pm 28.4 S 6 7 1009.8 - 0.0 - - - - - - -
04/08:00pm 28.4 S 6 8 1009.6 - 0.0 - - - - - - -
04/07:30pm 28.4 SW 6 7 1009.2 - 0.0 - - - - - - -
04/07:00pm 28.1 WSW 5 6 1008.6 - 0.0 - - - - - - -
04/06:30pm 28.0 WSW 4 6 1008.2 - 0.0 - - - - - - -
04/06:00pm 28.0 SW 5 7 1007.8 - 0.0 - - - - - - -
04/05:30pm 28.2 SW 8 15 1007.7 - 0.0 - - - - - - -
04/05:00pm 28.4 W 12 15 1007.4 - 0.0 - - - - - - -
04/04:30pm 29.6 W 11 13 1007.0 - 0.0 - - - - - - -
04/04:00pm 30.1 W 10 11 1006.6 - 0.0 - - - - - - -
04/03:30pm 30.8 W 10 13 1006.4 - 0.0 - - - - - - -
04/03:00pm 31.0 W 10 12 1006.3 - 0.0 - - - - - - -
04/02:30pm 31.1 W 10 11 1006.5 - 0.0 - - - - - - -
04/02:00pm 31.1 WNW 10 12 1006.7 - 0.0 - - - - - - -
04/01:30pm 30.8 WNW 10 12 1006.6 - 0.0 - - - - - - -
04/01:00pm 30.8 W 8 10 1007.1 - 0.0 - - - - - - -
04/12:30pm 30.3 W 9 10 1007.5 - 0.0 - - - - - - -
04/12:00pm 30.3 W 8 9 1007.8 - 0.0 - - - - - - -
04/11:30am 30.4 W 7 8 1008.2 - 0.0 - - - - - - -
04/11:00am 29.7 WNW 6 9 1008.4 - 0.0 - - - - - - -
04/10:30am 30.0 WNW 7 8 1008.6 - 0.0 - - - - - - -
04/10:00am 29.7 WNW 6 8 1008.7 - 0.0 - - - - - - -
04/09:30am 29.6 WNW 6 7 1008.8 - 0.0 - - - - - - -
04/09:00am 28.8 WNW 7 8 1008.6 - 0.8 - - - - - - -
04/08:30am 28.2 NW 7 8 1009.0 - 0.8 - - - - - - -
04/08:00am 27.9 NW 9 11 1008.4 - 0.8 - - - - - - -
04/07:30am 27.5 NNW 6 8 1008.3 - 0.8 - - - - - - -
04/07:00am 28.0 CALM 0 0 1007.8 - 0.8 - - - - - - -
04/06:30am 27.5 NNE 3 4 1007.6 - 0.8 - - - - - - -
04/06:00am 27.1 NNE 4 5 1007.2 - 0.8 - - - - - - -
04/05:30am 27.0 NNE 4 5 1007.0 - 0.8 - - - - - - -
04/05:00am 26.9 NE 4 5 1006.5 - 0.8 - - - - - - -
04/04:30am 27.0 NE 3 4 1005.9 - 0.8 - - - - - - -
04/04:00am 26.7 CALM 0 0 1005.6 - 0.8 - - - - - - -
04/03:30am 26.6 NNE 3 4 1005.6 - 0.8 - - - - - - -
04/03:00am 26.3 NE 2 5 1005.6 - 0.8 - - - - - - -
04/02:30am 27.2 NE 6 9 1006.0 - 0.0 - - - - - - -
04/02:00am 27.6 ENE 4 5 1005.9 - 0.0 - - - - - - -
04/01:30am 27.6 NE 4 6 1006.1 - 0.0 - - - - - - -
04/01:00am 27.7 ENE 5 7 1006.4 - 0.0 - - - - - - -
04/12:30am 27.7 ENE 6 8 1006.9 - 0.0 - - - - - - -
04/12:00am 27.6 E 6 7 1006.8 - 0.0 - - - - - - -
 
Date/Time
WST
Temp

°C
Wind Pressure Rain
since 9am
mm
Weather Cloud Vis
km
Sea
Height
m
Swell
Dir
 
Speed
knots
Gust
knots
hPa Trend Height
m
Period
s
Dir
03/11:30pm 27.7 E 6 7 1007.0 - 0.0 - - - - - - -
03/11:00pm 27.8 E 6 7 1007.1 - 0.0 - - - - - - -
03/10:30pm 27.4 ESE 3 4 1007.2 - 0.0 - - - - - - -
03/10:00pm 27.6 ESE 6 8 1007.5 - 0.0 - - - - - - -
03/09:30pm 27.6 E 7 9 1007.4 - 0.0 - - - - - - -
03/09:00pm 27.5 ENE 5 6 1007.2 - 0.0 - - - - - - -
03/08:30pm 27.4 ENE 5 6 1007.1 - 0.0 - - - - - - -
03/08:00pm 27.3 ESE 6 8 1006.6 - 0.0 - - - - - - -
03/07:30pm 27.5 SE 8 10 1006.1 - 0.0 - - - - - - -
03/07:00pm 27.6 E 10 13 1005.8 - 0.0 - - - - - - -
03/06:30pm 27.6 E 9 12 1005.7 - 0.0 - - - - - - -
03/06:00pm 27.6 E 11 14 1005.4 - 0.0 - - - - - - -
03/05:30pm 27.6 ESE 10 11 1005.2 - 0.0 - - - - - - -
03/05:00pm 27.4 SSE 8 10 1004.8 - 0.0 - - - - - - -
03/04:30pm 27.4 SSE 10 14 1004.4 - 0.0 - - - - - - -
03/04:00pm 27.4 SE 11 14 1004.3 - 0.0 - - - - - - -
03/03:30pm 27.5 SE 11 14 1004.5 - 0.0 - - - - - - -
03/03:00pm 27.3 SE 10 13 1004.8 - 0.0 - - - - - - -
03/02:30pm 27.1 ESE 13 16 1005.0 - 0.0 - - - - - - -
03/02:00pm 26.9 ESE 13 16 1005.2 - 0.0 - - - - - - -
03/01:30pm 27.2 SE 14 18 1005.5 - 0.0 - - - - - - -
03/01:00pm 27.5 SSE 16 20 1005.7 - 0.0 - - - - - - -
03/12:30pm 27.8 SSE 18 22 1006.1 - 0.0 - - - - - - -
03/12:00pm 27.3 SSE 15 19 1006.7 - 0.0 - - - - - - -
03/11:30am 26.5 SSE 14 18 1007.3 - 0.0 - - - - - - -
03/11:00am 26.3 SSE 14 17 1007.6 - 0.0 - - - - - - -
03/10:30am 25.9 SE 17 21 1008.2 - 0.0 - - - - - - -
03/10:00am 25.9 SE 19 23 1008.4 - 0.0 - - - - - - -
03/09:30am 26.3 SSE 14 18 1008.3 - 0.0 - - - - - - -
03/09:00am 25.8 SSE 15 22 1008.2 - 19.2 - - - - - - -
03/08:30am 25.5 S 12 15 1008.3 - 19.0 - - - - - - -

Other Formats:

Comma delimited format used in spreadsheet applications
http://www.bom.gov.au/fwo/IDW60701/IDW60701.94102.axf

JavaScript Object Notation format (JSON) in row-major order
http://www.bom.gov.au/fwo/IDW60701/IDW60701.94102.json